sensor_id;sensor_type;location;lat;lon;timestamp;P1;durP1;ratioP1;P2;durP2;ratioP2
74636;SDS011;63141;54.616;39.754;2023-04-03T00:02:42;4.78;;;1.58;;
74636;SDS011;63141;54.616;39.754;2023-04-03T00:05:51;3.85;;;1.70;;
74636;SDS011;63141;54.616;39.754;2023-04-03T00:08:53;4.07;;;1.77;;
74636;SDS011;63141;54.616;39.754;2023-04-03T00:12:06;3.60;;;1.65;;
74636;SDS011;63141;54.616;39.754;2023-04-03T00:15:07;5.82;;;1.80;;
74636;SDS011;63141;54.616;39.754;2023-04-03T00:18:10;3.65;;;1.50;;
74636;SDS011;63141;54.616;39.754;2023-04-03T00:21:17;3.10;;;1.70;;
74636;SDS011;63141;54.616;39.754;2023-04-03T00:24:19;3.50;;;1.60;;
74636;SDS011;63141;54.616;39.754;2023-04-03T00:27:26;3.08;;;1.40;;
74636;SDS011;63141;54.616;39.754;2023-04-03T00:30:27;2.58;;;1.60;;
74636;SDS011;63141;54.616;39.754;2023-04-03T00:33:35;3.80;;;1.27;;
74636;SDS011;63141;54.616;39.754;2023-04-03T00:36:42;3.80;;;1.40;;
74636;SDS011;63141;54.616;39.754;2023-04-03T00:39:52;2.72;;;1.38;;
74636;SDS011;63141;54.616;39.754;2023-04-03T00:42:57;3.17;;;1.52;;
74636;SDS011;63141;54.616;39.754;2023-04-03T00:46:11;3.05;;;1.42;;
74636;SDS011;63141;54.616;39.754;2023-04-03T00:49:18;4.10;;;1.60;;
74636;SDS011;63141;54.616;39.754;2023-04-03T00:52:28;4.63;;;1.42;;
74636;SDS011;63141;54.616;39.754;2023-04-03T00:55:34;2.45;;;1.17;;
74636;SDS011;63141;54.616;39.754;2023-04-03T00:58:45;3.53;;;1.30;;
74636;SDS011;63141;54.616;39.754;2023-04-03T01:01:55;2.45;;;1.60;;
74636;SDS011;63141;54.616;39.754;2023-04-03T01:05:03;4.63;;;1.70;;
74636;SDS011;63141;54.616;39.754;2023-04-03T01:08:08;2.58;;;1.40;;
74636;SDS011;63141;54.616;39.754;2023-04-03T01:11:09;4.88;;;1.55;;
74636;SDS011;63141;54.616;39.754;2023-04-03T01:14:11;3.10;;;1.65;;
74636;SDS011;63141;54.616;39.754;2023-04-03T01:24:32;4.47;;;1.52;;
74636;SDS011;63141;54.616;39.754;2023-04-03T01:27:42;3.38;;;1.20;;
74636;SDS011;63141;54.616;39.754;2023-04-03T01:34:12;3.20;;;1.40;;
74636;SDS011;63141;54.616;39.754;2023-04-03T01:37:19;3.10;;;1.35;;
74636;SDS011;63141;54.616;39.754;2023-04-03T01:40:26;1.98;;;1.15;;
74636;SDS011;63141;54.616;39.754;2023-04-03T01:43:30;4.60;;;1.48;;
74636;SDS011;63141;54.616;39.754;2023-04-03T01:46:38;3.58;;;1.50;;
74636;SDS011;63141;54.616;39.754;2023-04-03T01:49:45;3.47;;;1.60;;
74636;SDS011;63141;54.616;39.754;2023-04-03T01:52:47;2.50;;;1.30;;
74636;SDS011;63141;54.616;39.754;2023-04-03T01:55:48;3.30;;;1.50;;
74636;SDS011;63141;54.616;39.754;2023-04-03T01:58:49;2.85;;;1.40;;
74636;SDS011;63141;54.616;39.754;2023-04-03T02:01:57;3.78;;;1.55;;
74636;SDS011;63141;54.616;39.754;2023-04-03T02:04:58;4.00;;;1.50;;
74636;SDS011;63141;54.616;39.754;2023-04-03T02:08:02;2.75;;;1.60;;
74636;SDS011;63141;54.616;39.754;2023-04-03T02:11:03;1.77;;;1.10;;
74636;SDS011;63141;54.616;39.754;2023-04-03T02:14:05;4.28;;;1.48;;
74636;SDS011;63141;54.616;39.754;2023-04-03T02:17:07;1.83;;;1.38;;
74636;SDS011;63141;54.616;39.754;2023-04-03T02:20:09;2.83;;;1.38;;
74636;SDS011;63141;54.616;39.754;2023-04-03T02:23:11;1.85;;;1.25;;
74636;SDS011;63141;54.616;39.754;2023-04-03T02:26:18;2.95;;;1.45;;
74636;SDS011;63141;54.616;39.754;2023-04-03T02:29:20;2.70;;;1.27;;
74636;SDS011;63141;54.616;39.754;2023-04-03T02:32:24;1.80;;;1.20;;
74636;SDS011;63141;54.616;39.754;2023-04-03T02:35:26;2.15;;;1.35;;
74636;SDS011;63141;54.616;39.754;2023-04-03T02:38:32;1.85;;;1.30;;
74636;SDS011;63141;54.616;39.754;2023-04-03T02:41:34;3.22;;;1.63;;
74636;SDS011;63141;54.616;39.754;2023-04-03T02:44:45;2.65;;;1.50;;
74636;SDS011;63141;54.616;39.754;2023-04-03T02:47:52;1.65;;;1.27;;
74636;SDS011;63141;54.616;39.754;2023-04-03T02:50:53;3.05;;;1.50;;
74636;SDS011;63141;54.616;39.754;2023-04-03T02:53:55;3.63;;;1.60;;
74636;SDS011;63141;54.616;39.754;2023-04-03T02:57:06;4.20;;;1.48;;
74636;SDS011;63141;54.616;39.754;2023-04-03T03:00:13;2.15;;;1.60;;
74636;SDS011;63141;54.616;39.754;2023-04-03T03:03:18;2.90;;;1.35;;
74636;SDS011;63141;54.616;39.754;2023-04-03T03:06:22;3.28;;;1.40;;
74636;SDS011;63141;54.616;39.754;2023-04-03T03:09:26;4.35;;;1.73;;
74636;SDS011;63141;54.616;39.754;2023-04-03T03:12:27;2.60;;;1.70;;
74636;SDS011;63141;54.616;39.754;2023-04-03T03:15:30;4.22;;;1.60;;
74636;SDS011;63141;54.616;39.754;2023-04-03T03:18:32;3.05;;;1.63;;
74636;SDS011;63141;54.616;39.754;2023-04-03T03:21:36;2.45;;;1.50;;
74636;SDS011;63141;54.616;39.754;2023-04-03T03:24:38;3.70;;;1.75;;
74636;SDS011;63141;54.616;39.754;2023-04-03T03:27:39;1.92;;;1.50;;
74636;SDS011;63141;54.616;39.754;2023-04-03T03:30:47;3.22;;;1.63;;
74636;SDS011;63141;54.616;39.754;2023-04-03T03:33:52;2.40;;;1.60;;
74636;SDS011;63141;54.616;39.754;2023-04-03T03:37:03;2.75;;;1.60;;
74636;SDS011;63141;54.616;39.754;2023-04-03T03:40:04;3.40;;;1.98;;
74636;SDS011;63141;54.616;39.754;2023-04-03T03:43:07;4.80;;;1.80;;
74636;SDS011;63141;54.616;39.754;2023-04-03T03:46:08;3.25;;;1.65;;
74636;SDS011;63141;54.616;39.754;2023-04-03T03:49:09;5.07;;;2.10;;
74636;SDS011;63141;54.616;39.754;2023-04-03T03:52:12;4.85;;;1.90;;
74636;SDS011;63141;54.616;39.754;2023-04-03T03:55:16;2.72;;;1.50;;
74636;SDS011;63141;54.616;39.754;2023-04-03T03:58:31;3.42;;;1.40;;
74636;SDS011;63141;54.616;39.754;2023-04-03T04:01:36;6.00;;;1.65;;
74636;SDS011;63141;54.616;39.754;2023-04-03T04:04:43;2.22;;;1.73;;
74636;SDS011;63141;54.616;39.754;2023-04-03T04:07:51;2.03;;;1.65;;
74636;SDS011;63141;54.616;39.754;2023-04-03T04:10:59;4.72;;;1.90;;
74636;SDS011;63141;54.616;39.754;2023-04-03T04:14:01;3.88;;;1.90;;
74636;SDS011;63141;54.616;39.754;2023-04-03T04:17:06;5.20;;;1.90;;
74636;SDS011;63141;54.616;39.754;2023-04-03T04:20:13;3.70;;;1.98;;
74636;SDS011;63141;54.616;39.754;2023-04-03T04:23:16;5.18;;;1.90;;
74636;SDS011;63141;54.616;39.754;2023-04-03T04:26:25;4.25;;;2.72;;
74636;SDS011;63141;54.616;39.754;2023-04-03T04:29:29;5.55;;;2.50;;
74636;SDS011;63141;54.616;39.754;2023-04-03T04:32:40;4.95;;;2.60;;
74636;SDS011;63141;54.616;39.754;2023-04-03T04:35:42;6.72;;;2.70;;
74636;SDS011;63141;54.616;39.754;2023-04-03T04:38:48;8.43;;;2.45;;
74636;SDS011;63141;54.616;39.754;2023-04-03T04:41:50;7.22;;;2.60;;
74636;SDS011;63141;54.616;39.754;2023-04-03T04:45:02;5.95;;;3.00;;
74636;SDS011;63141;54.616;39.754;2023-04-03T04:48:10;5.40;;;2.10;;
74636;SDS011;63141;54.616;39.754;2023-04-03T04:51:11;9.80;;;3.30;;
74636;SDS011;63141;54.616;39.754;2023-04-03T04:54:13;12.68;;;2.75;;
74636;SDS011;63141;54.616;39.754;2023-04-03T04:57:16;5.78;;;2.83;;
74636;SDS011;63141;54.616;39.754;2023-04-03T05:00:33;7.60;;;2.80;;
74636;SDS011;63141;54.616;39.754;2023-04-03T05:03:38;7.38;;;2.67;;
74636;SDS011;63141;54.616;39.754;2023-04-03T05:06:50;5.97;;;2.78;;
74636;SDS011;63141;54.616;39.754;2023-04-03T05:09:59;13.18;;;2.88;;
74636;SDS011;63141;54.616;39.754;2023-04-03T05:13:05;9.30;;;2.72;;
74636;SDS011;63141;54.616;39.754;2023-04-03T05:16:09;6.20;;;2.55;;
74636;SDS011;63141;54.616;39.754;2023-04-03T05:19:14;4.97;;;2.33;;
74636;SDS011;63141;54.616;39.754;2023-04-03T05:22:24;7.80;;;2.45;;
74636;SDS011;63141;54.616;39.754;2023-04-03T05:25:29;6.88;;;2.20;;
74636;SDS011;63141;54.616;39.754;2023-04-03T05:28:36;6.30;;;2.30;;
74636;SDS011;63141;54.616;39.754;2023-04-03T05:31:41;4.50;;;2.30;;
74636;SDS011;63141;54.616;39.754;2023-04-03T05:34:44;4.35;;;2.20;;
74636;SDS011;63141;54.616;39.754;2023-04-03T05:37:53;5.97;;;2.15;;
74636;SDS011;63141;54.616;39.754;2023-04-03T05:41:01;5.93;;;2.17;;
74636;SDS011;63141;54.616;39.754;2023-04-03T05:44:06;12.45;;;2.20;;
74636;SDS011;63141;54.616;39.754;2023-04-03T05:47:16;6.18;;;1.98;;
74636;SDS011;63141;54.616;39.754;2023-04-03T05:50:21;4.93;;;2.53;;
74636;SDS011;63141;54.616;39.754;2023-04-03T05:53:33;4.90;;;2.40;;
74636;SDS011;63141;54.616;39.754;2023-04-03T05:56:39;3.95;;;2.15;;
74636;SDS011;63141;54.616;39.754;2023-04-03T05:59:49;5.13;;;2.00;;
74636;SDS011;63141;54.616;39.754;2023-04-03T06:02:57;6.00;;;2.50;;
74636;SDS011;63141;54.616;39.754;2023-04-03T06:06:07;3.38;;;1.98;;
74636;SDS011;63141;54.616;39.754;2023-04-03T06:09:17;7.45;;;1.85;;
74636;SDS011;63141;54.616;39.754;2023-04-03T06:12:23;4.60;;;2.30;;
74636;SDS011;63141;54.616;39.754;2023-04-03T06:15:44;2.95;;;2.10;;
74636;SDS011;63141;54.616;39.754;2023-04-03T06:19:04;6.13;;;2.15;;
74636;SDS011;63141;54.616;39.754;2023-04-03T06:22:16;4.10;;;2.38;;
74636;SDS011;63141;54.616;39.754;2023-04-03T06:25:20;5.38;;;2.00;;
74636;SDS011;63141;54.616;39.754;2023-04-03T06:28:24;5.72;;;2.03;;
74636;SDS011;63141;54.616;39.754;2023-04-03T06:31:32;4.85;;;2.28;;
74636;SDS011;63141;54.616;39.754;2023-04-03T06:34:40;5.20;;;2.47;;
74636;SDS011;63141;54.616;39.754;2023-04-03T06:37:50;5.00;;;2.10;;
74636;SDS011;63141;54.616;39.754;2023-04-03T06:40:58;4.10;;;2.22;;
74636;SDS011;63141;54.616;39.754;2023-04-03T06:44:05;5.80;;;2.00;;
74636;SDS011;63141;54.616;39.754;2023-04-03T06:47:13;5.93;;;2.30;;
74636;SDS011;63141;54.616;39.754;2023-04-03T06:50:23;4.90;;;2.15;;
74636;SDS011;63141;54.616;39.754;2023-04-03T06:53:46;3.72;;;2.20;;
74636;SDS011;63141;54.616;39.754;2023-04-03T06:56:51;4.00;;;2.00;;
74636;SDS011;63141;54.616;39.754;2023-04-03T06:59:59;3.28;;;2.25;;
74636;SDS011;63141;54.616;39.754;2023-04-03T07:03:13;3.83;;;1.85;;
74636;SDS011;63141;54.616;39.754;2023-04-03T07:06:23;4.85;;;1.98;;
74636;SDS011;63141;54.616;39.754;2023-04-03T07:09:46;4.30;;;2.00;;
74636;SDS011;63141;54.616;39.754;2023-04-03T07:16:16;5.53;;;2.30;;
74636;SDS011;63141;54.616;39.754;2023-04-03T07:19:27;6.38;;;2.28;;
74636;SDS011;63141;54.616;39.754;2023-04-03T07:22:35;5.47;;;2.20;;
74636;SDS011;63141;54.616;39.754;2023-04-03T07:25:46;3.33;;;1.95;;
74636;SDS011;63141;54.616;39.754;2023-04-03T07:29:00;4.82;;;1.85;;
74636;SDS011;63141;54.616;39.754;2023-04-03T07:32:02;7.47;;;2.22;;
74636;SDS011;63141;54.616;39.754;2023-04-03T07:35:03;4.07;;;2.10;;
74636;SDS011;63141;54.616;39.754;2023-04-03T07:38:08;4.53;;;2.47;;
74636;SDS011;63141;54.616;39.754;2023-04-03T07:41:25;3.97;;;1.80;;
74636;SDS011;63141;54.616;39.754;2023-04-03T07:44:31;3.42;;;2.20;;
74636;SDS011;63141;54.616;39.754;2023-04-03T07:47:48;3.42;;;2.17;;
74636;SDS011;63141;54.616;39.754;2023-04-03T07:51:01;6.00;;;2.20;;
74636;SDS011;63141;54.616;39.754;2023-04-03T07:54:18;3.00;;;1.90;;
74636;SDS011;63141;54.616;39.754;2023-04-03T07:57:22;4.00;;;2.20;;
74636;SDS011;63141;54.616;39.754;2023-04-03T08:00:29;5.65;;;2.00;;
74636;SDS011;63141;54.616;39.754;2023-04-03T08:03:34;5.72;;;2.80;;
74636;SDS011;63141;54.616;39.754;2023-04-03T08:06:56;5.80;;;2.15;;
74636;SDS011;63141;54.616;39.754;2023-04-03T08:10:09;3.28;;;2.03;;
74636;SDS011;63141;54.616;39.754;2023-04-03T08:13:29;5.47;;;2.20;;
74636;SDS011;63141;54.616;39.754;2023-04-03T08:16:49;5.25;;;2.30;;
74636;SDS011;63141;54.616;39.754;2023-04-03T08:19:56;6.30;;;2.72;;
74636;SDS011;63141;54.616;39.754;2023-04-03T08:23:03;5.18;;;2.38;;
74636;SDS011;63141;54.616;39.754;2023-04-03T08:26:25;6.32;;;2.72;;
74636;SDS011;63141;54.616;39.754;2023-04-03T08:29:48;3.90;;;2.40;;
74636;SDS011;63141;54.616;39.754;2023-04-03T08:33:02;4.68;;;2.47;;
74636;SDS011;63141;54.616;39.754;2023-04-03T08:39:24;3.55;;;2.10;;
74636;SDS011;63141;54.616;39.754;2023-04-03T08:46:14;5.88;;;2.33;;
74636;SDS011;63141;54.616;39.754;2023-04-03T08:56:29;4.72;;;2.33;;
74636;SDS011;63141;54.616;39.754;2023-04-03T08:59:47;3.30;;;2.38;;
74636;SDS011;63141;54.616;39.754;2023-04-03T09:03:00;7.28;;;2.47;;
74636;SDS011;63141;54.616;39.754;2023-04-03T09:06:20;3.63;;;2.10;;
74636;SDS011;63141;54.616;39.754;2023-04-03T09:09:40;2.88;;;2.33;;
74636;SDS011;63141;54.616;39.754;2023-04-03T09:12:49;3.90;;;2.20;;
74636;SDS011;63141;54.616;39.754;2023-04-03T09:16:10;6.72;;;2.30;;
74636;SDS011;63141;54.616;39.754;2023-04-03T09:19:54;2.72;;;2.15;;
74636;SDS011;63141;54.616;39.754;2023-04-03T09:23:24;4.10;;;2.13;;
74636;SDS011;63141;54.616;39.754;2023-04-03T09:30:18;4.22;;;2.42;;
74636;SDS011;63141;54.616;39.754;2023-04-03T09:33:21;5.85;;;2.40;;
74636;SDS011;63141;54.616;39.754;2023-04-03T09:36:39;3.28;;;2.30;;
74636;SDS011;63141;54.616;39.754;2023-04-03T09:39:56;6.68;;;2.58;;
74636;SDS011;63141;54.616;39.754;2023-04-03T09:43:19;3.75;;;2.20;;
74636;SDS011;63141;54.616;39.754;2023-04-03T09:46:32;4.18;;;2.38;;
74636;SDS011;63141;54.616;39.754;2023-04-03T09:49:47;7.22;;;2.50;;
74636;SDS011;63141;54.616;39.754;2023-04-03T09:52:57;4.43;;;2.33;;
74636;SDS011;63141;54.616;39.754;2023-04-03T09:59:18;4.38;;;2.30;;
74636;SDS011;63141;54.616;39.754;2023-04-03T10:02:40;3.65;;;2.40;;
74636;SDS011;63141;54.616;39.754;2023-04-03T10:05:54;4.30;;;2.30;;
74636;SDS011;63141;54.616;39.754;2023-04-03T10:09:06;4.85;;;2.53;;
74636;SDS011;63141;54.616;39.754;2023-04-03T10:12:30;4.03;;;2.30;;
74636;SDS011;63141;54.616;39.754;2023-04-03T10:15:44;3.45;;;2.17;;
74636;SDS011;63141;54.616;39.754;2023-04-03T10:22:15;3.08;;;2.10;;
74636;SDS011;63141;54.616;39.754;2023-04-03T10:53:01;3.50;;;2.00;;
74636;SDS011;63141;54.616;39.754;2023-04-03T11:03:36;5.22;;;2.20;;
74636;SDS011;63141;54.616;39.754;2023-04-03T11:10:41;2.72;;;2.10;;
74636;SDS011;63141;54.616;39.754;2023-04-03T11:14:04;3.25;;;1.85;;
74636;SDS011;63141;54.616;39.754;2023-04-03T11:20:37;3.90;;;1.98;;
74636;SDS011;63141;54.616;39.754;2023-04-03T11:23:48;4.93;;;1.60;;
74636;SDS011;63141;54.616;39.754;2023-04-03T11:26:59;3.35;;;1.70;;
74636;SDS011;63141;54.616;39.754;2023-04-03T11:30:16;3.63;;;1.88;;
74636;SDS011;63141;54.616;39.754;2023-04-03T11:40:38;5.03;;;1.77;;
74636;SDS011;63141;54.616;39.754;2023-04-03T11:47:00;5.40;;;2.35;;
74636;SDS011;63141;54.616;39.754;2023-04-03T11:53:43;4.03;;;2.03;;
74636;SDS011;63141;54.616;39.754;2023-04-03T11:56:48;6.50;;;1.98;;
74636;SDS011;63141;54.616;39.754;2023-04-03T12:00:45;8.43;;;2.28;;
74636;SDS011;63141;54.616;39.754;2023-04-03T12:04:17;5.70;;;2.22;;
74636;SDS011;63141;54.616;39.754;2023-04-03T12:07:34;5.20;;;1.92;;
74636;SDS011;63141;54.616;39.754;2023-04-03T12:10:35;3.03;;;1.75;;
74636;SDS011;63141;54.616;39.754;2023-04-03T12:17:20;4.35;;;2.10;;
74636;SDS011;63141;54.616;39.754;2023-04-03T12:30:22;7.03;;;1.90;;
74636;SDS011;63141;54.616;39.754;2023-04-03T12:33:58;9.98;;;2.20;;
74636;SDS011;63141;54.616;39.754;2023-04-03T12:48:32;2.25;;;1.70;;
74636;SDS011;63141;54.616;39.754;2023-04-03T12:51:46;8.85;;;1.77;;
74636;SDS011;63141;54.616;39.754;2023-04-03T12:55:20;4.22;;;1.95;;
74636;SDS011;63141;54.616;39.754;2023-04-03T12:58:28;3.17;;;1.73;;
74636;SDS011;63141;54.616;39.754;2023-04-03T13:04:47;5.93;;;1.20;;
74636;SDS011;63141;54.616;39.754;2023-04-03T13:08:02;9.63;;;1.83;;
74636;SDS011;63141;54.616;39.754;2023-04-03T13:11:08;6.10;;;1.55;;
74636;SDS011;63141;54.616;39.754;2023-04-03T13:14:36;3.05;;;1.55;;
74636;SDS011;63141;54.616;39.754;2023-04-03T13:17:41;3.70;;;1.75;;
74636;SDS011;63141;54.616;39.754;2023-04-03T13:20:46;2.47;;;1.48;;
74636;SDS011;63141;54.616;39.754;2023-04-03T13:24:17;4.50;;;1.60;;
74636;SDS011;63141;54.616;39.754;2023-04-03T13:27:27;2.17;;;1.42;;
74636;SDS011;63141;54.616;39.754;2023-04-03T13:30:38;2.83;;;1.90;;
74636;SDS011;63141;54.616;39.754;2023-04-03T13:37:23;5.22;;;1.50;;
74636;SDS011;63141;54.616;39.754;2023-04-03T13:40:52;3.10;;;1.80;;
74636;SDS011;63141;54.616;39.754;2023-04-03T13:47:26;3.60;;;1.70;;
74636;SDS011;63141;54.616;39.754;2023-04-03T13:50:58;6.43;;;1.95;;
74636;SDS011;63141;54.616;39.754;2023-04-03T13:54:10;3.85;;;1.70;;
74636;SDS011;63141;54.616;39.754;2023-04-03T13:57:31;3.33;;;1.77;;
74636;SDS011;63141;54.616;39.754;2023-04-03T14:04:29;3.38;;;2.15;;
74636;SDS011;63141;54.616;39.754;2023-04-03T14:07:33;3.83;;;1.80;;
74636;SDS011;63141;54.616;39.754;2023-04-03T14:10:38;3.60;;;2.00;;
74636;SDS011;63141;54.616;39.754;2023-04-03T14:17:36;4.07;;;1.95;;
74636;SDS011;63141;54.616;39.754;2023-04-03T14:20:56;4.50;;;2.38;;
74636;SDS011;63141;54.616;39.754;2023-04-03T14:24:15;3.42;;;2.40;;
74636;SDS011;63141;54.616;39.754;2023-04-03T14:30:57;4.65;;;2.05;;
74636;SDS011;63141;54.616;39.754;2023-04-03T14:34:04;4.22;;;2.22;;
74636;SDS011;63141;54.616;39.754;2023-04-03T14:37:17;4.35;;;2.25;;
74636;SDS011;63141;54.616;39.754;2023-04-03T14:40:31;2.72;;;1.90;;
74636;SDS011;63141;54.616;39.754;2023-04-03T14:43:44;6.10;;;2.10;;
74636;SDS011;63141;54.616;39.754;2023-04-03T14:47:10;4.22;;;1.90;;
74636;SDS011;63141;54.616;39.754;2023-04-03T14:50:37;3.50;;;1.75;;
74636;SDS011;63141;54.616;39.754;2023-04-03T14:53:56;6.05;;;2.17;;
74636;SDS011;63141;54.616;39.754;2023-04-03T14:57:21;5.60;;;2.03;;
74636;SDS011;63141;54.616;39.754;2023-04-03T15:00:25;3.83;;;1.77;;
74636;SDS011;63141;54.616;39.754;2023-04-03T15:03:43;4.15;;;1.90;;
74636;SDS011;63141;54.616;39.754;2023-04-03T15:06:54;7.43;;;2.33;;
74636;SDS011;63141;54.616;39.754;2023-04-03T15:10:03;7.05;;;2.15;;
74636;SDS011;63141;54.616;39.754;2023-04-03T15:13:37;5.28;;;1.95;;
74636;SDS011;63141;54.616;39.754;2023-04-03T15:17:00;8.77;;;1.83;;
74636;SDS011;63141;54.616;39.754;2023-04-03T15:20:14;3.35;;;1.60;;
74636;SDS011;63141;54.616;39.754;2023-04-03T15:23:17;5.00;;;1.80;;
74636;SDS011;63141;54.616;39.754;2023-04-03T15:26:34;6.93;;;2.10;;
74636;SDS011;63141;54.616;39.754;2023-04-03T15:29:56;7.63;;;2.28;;
74636;SDS011;63141;54.616;39.754;2023-04-03T15:33:16;8.00;;;2.60;;
74636;SDS011;63141;54.616;39.754;2023-04-03T15:36:25;8.10;;;2.80;;
74636;SDS011;63141;54.616;39.754;2023-04-03T15:39:36;9.50;;;2.92;;
74636;SDS011;63141;54.616;39.754;2023-04-03T15:42:40;8.85;;;2.97;;
74636;SDS011;63141;54.616;39.754;2023-04-03T15:45:55;9.93;;;3.38;;
74636;SDS011;63141;54.616;39.754;2023-04-03T15:49:09;10.25;;;3.17;;
74636;SDS011;63141;54.616;39.754;2023-04-03T15:52:22;15.85;;;3.30;;
74636;SDS011;63141;54.616;39.754;2023-04-03T15:55:30;13.25;;;3.08;;
74636;SDS011;63141;54.616;39.754;2023-04-03T15:58:47;9.77;;;2.53;;
74636;SDS011;63141;54.616;39.754;2023-04-03T16:01:57;6.20;;;2.25;;
74636;SDS011;63141;54.616;39.754;2023-04-03T16:05:19;11.85;;;2.55;;
74636;SDS011;63141;54.616;39.754;2023-04-03T16:08:23;8.15;;;2.47;;
74636;SDS011;63141;54.616;39.754;2023-04-03T16:11:44;6.70;;;1.92;;
74636;SDS011;63141;54.616;39.754;2023-04-03T16:15:12;7.60;;;2.35;;
74636;SDS011;63141;54.616;39.754;2023-04-03T16:18:28;2.95;;;2.00;;
74636;SDS011;63141;54.616;39.754;2023-04-03T16:21:42;5.28;;;2.08;;
74636;SDS011;63141;54.616;39.754;2023-04-03T16:24:44;6.38;;;1.60;;
74636;SDS011;63141;54.616;39.754;2023-04-03T16:28:17;7.28;;;3.33;;
74636;SDS011;63141;54.616;39.754;2023-04-03T16:31:24;6.63;;;3.33;;
74636;SDS011;63141;54.616;39.754;2023-04-03T16:34:44;12.27;;;4.75;;
74636;SDS011;63141;54.616;39.754;2023-04-03T16:37:55;11.15;;;3.70;;
74636;SDS011;63141;54.616;39.754;2023-04-03T16:41:05;8.48;;;3.97;;
74636;SDS011;63141;54.616;39.754;2023-04-03T16:44:10;7.90;;;3.83;;
74636;SDS011;63141;54.616;39.754;2023-04-03T16:47:25;5.28;;;2.53;;
74636;SDS011;63141;54.616;39.754;2023-04-03T16:50:47;4.10;;;2.70;;
74636;SDS011;63141;54.616;39.754;2023-04-03T16:54:03;8.88;;;3.15;;
74636;SDS011;63141;54.616;39.754;2023-04-03T16:57:23;4.80;;;2.70;;
74636;SDS011;63141;54.616;39.754;2023-04-03T17:00:55;6.50;;;2.50;;
74636;SDS011;63141;54.616;39.754;2023-04-03T17:04:14;8.65;;;2.70;;
74636;SDS011;63141;54.616;39.754;2023-04-03T17:07:33;5.88;;;2.40;;
74636;SDS011;63141;54.616;39.754;2023-04-03T17:10:50;6.85;;;2.35;;
74636;SDS011;63141;54.616;39.754;2023-04-03T17:14:00;10.80;;;2.40;;
74636;SDS011;63141;54.616;39.754;2023-04-03T17:17:21;5.97;;;2.30;;
74636;SDS011;63141;54.616;39.754;2023-04-03T17:20:40;4.57;;;2.35;;
74636;SDS011;63141;54.616;39.754;2023-04-03T17:24:00;4.20;;;2.35;;
74636;SDS011;63141;54.616;39.754;2023-04-03T17:27:32;4.40;;;2.67;;
74636;SDS011;63141;54.616;39.754;2023-04-03T17:30:46;4.00;;;2.00;;
74636;SDS011;63141;54.616;39.754;2023-04-03T17:34:15;6.50;;;2.30;;
74636;SDS011;63141;54.616;39.754;2023-04-03T17:37:48;8.82;;;2.55;;
74636;SDS011;63141;54.616;39.754;2023-04-03T17:41:21;6.55;;;2.38;;
74636;SDS011;63141;54.616;39.754;2023-04-03T17:44:34;5.50;;;2.20;;
74636;SDS011;63141;54.616;39.754;2023-04-03T17:48:06;7.53;;;2.50;;
74636;SDS011;63141;54.616;39.754;2023-04-03T17:51:22;6.78;;;2.83;;
74636;SDS011;63141;54.616;39.754;2023-04-03T17:54:39;8.45;;;2.63;;
74636;SDS011;63141;54.616;39.754;2023-04-03T17:57:41;6.00;;;2.35;;
74636;SDS011;63141;54.616;39.754;2023-04-03T18:00:48;10.27;;;2.53;;
74636;SDS011;63141;54.616;39.754;2023-04-03T18:04:03;4.15;;;2.47;;
74636;SDS011;63141;54.616;39.754;2023-04-03T18:07:22;4.70;;;2.70;;
74636;SDS011;63141;54.616;39.754;2023-04-03T18:10:43;8.55;;;3.10;;
74636;SDS011;63141;54.616;39.754;2023-04-03T18:14:03;10.18;;;2.67;;
74636;SDS011;63141;54.616;39.754;2023-04-03T18:17:15;6.80;;;2.80;;
74636;SDS011;63141;54.616;39.754;2023-04-03T18:20:27;9.20;;;2.63;;
74636;SDS011;63141;54.616;39.754;2023-04-03T18:23:56;11.18;;;2.45;;
74636;SDS011;63141;54.616;39.754;2023-04-03T18:27:26;10.00;;;2.70;;
74636;SDS011;63141;54.616;39.754;2023-04-03T18:31:02;11.77;;;3.33;;
74636;SDS011;63141;54.616;39.754;2023-04-03T18:34:25;10.93;;;3.75;;
74636;SDS011;63141;54.616;39.754;2023-04-03T18:37:29;9.25;;;3.72;;
74636;SDS011;63141;54.616;39.754;2023-04-03T18:40:54;9.93;;;3.60;;
74636;SDS011;63141;54.616;39.754;2023-04-03T18:44:12;11.88;;;3.30;;
74636;SDS011;63141;54.616;39.754;2023-04-03T18:47:35;7.90;;;3.28;;
74636;SDS011;63141;54.616;39.754;2023-04-03T18:50:39;14.32;;;3.65;;
74636;SDS011;63141;54.616;39.754;2023-04-03T18:53:41;9.35;;;3.55;;
74636;SDS011;63141;54.616;39.754;2023-04-03T18:56:54;12.27;;;3.30;;
74636;SDS011;63141;54.616;39.754;2023-04-03T19:00:09;11.55;;;3.30;;
74636;SDS011;63141;54.616;39.754;2023-04-03T19:03:25;10.18;;;3.65;;
74636;SDS011;63141;54.616;39.754;2023-04-03T19:06:48;9.23;;;3.35;;
74636;SDS011;63141;54.616;39.754;2023-04-03T19:10:28;9.90;;;3.55;;
74636;SDS011;63141;54.616;39.754;2023-04-03T19:14:11;7.22;;;3.65;;
74636;SDS011;63141;54.616;39.754;2023-04-03T19:17:18;10.68;;;3.33;;
74636;SDS011;63141;54.616;39.754;2023-04-03T19:20:28;10.18;;;3.60;;
74636;SDS011;63141;54.616;39.754;2023-04-03T19:23:39;7.70;;;3.15;;
74636;SDS011;63141;54.616;39.754;2023-04-03T19:27:07;10.98;;;3.38;;
74636;SDS011;63141;54.616;39.754;2023-04-03T19:30:33;8.50;;;3.58;;
74636;SDS011;63141;54.616;39.754;2023-04-03T19:33:35;7.05;;;3.08;;
74636;SDS011;63141;54.616;39.754;2023-04-03T19:36:46;7.93;;;3.47;;
74636;SDS011;63141;54.616;39.754;2023-04-03T19:39:54;5.45;;;2.80;;
74636;SDS011;63141;54.616;39.754;2023-04-03T19:42:58;12.95;;;3.55;;
74636;SDS011;63141;54.616;39.754;2023-04-03T19:46:05;12.55;;;3.20;;
74636;SDS011;63141;54.616;39.754;2023-04-03T19:49:36;9.10;;;3.30;;
74636;SDS011;63141;54.616;39.754;2023-04-03T19:52:41;9.25;;;3.42;;
74636;SDS011;63141;54.616;39.754;2023-04-03T19:56:00;9.27;;;3.13;;
74636;SDS011;63141;54.616;39.754;2023-04-03T19:59:13;11.00;;;2.97;;
74636;SDS011;63141;54.616;39.754;2023-04-03T20:02:21;13.50;;;3.00;;
74636;SDS011;63141;54.616;39.754;2023-04-03T20:05:41;6.47;;;3.00;;
74636;SDS011;63141;54.616;39.754;2023-04-03T20:09:09;5.18;;;2.95;;
74636;SDS011;63141;54.616;39.754;2023-04-03T20:12:31;4.28;;;2.88;;
74636;SDS011;63141;54.616;39.754;2023-04-03T20:15:45;9.38;;;3.03;;
74636;SDS011;63141;54.616;39.754;2023-04-03T20:18:50;6.65;;;2.70;;
74636;SDS011;63141;54.616;39.754;2023-04-03T20:22:03;8.15;;;2.97;;
74636;SDS011;63141;54.616;39.754;2023-04-03T20:25:13;4.07;;;2.63;;
74636;SDS011;63141;54.616;39.754;2023-04-03T20:28:27;6.72;;;2.47;;
74636;SDS011;63141;54.616;39.754;2023-04-03T20:31:46;7.07;;;3.00;;
74636;SDS011;63141;54.616;39.754;2023-04-03T20:34:54;9.80;;;2.70;;
74636;SDS011;63141;54.616;39.754;2023-04-03T20:37:55;8.13;;;2.85;;
74636;SDS011;63141;54.616;39.754;2023-04-03T20:41:00;7.38;;;2.88;;
74636;SDS011;63141;54.616;39.754;2023-04-03T20:44:10;5.05;;;2.70;;
74636;SDS011;63141;54.616;39.754;2023-04-03T20:47:17;4.07;;;2.60;;
74636;SDS011;63141;54.616;39.754;2023-04-03T20:50:48;5.55;;;2.55;;
74636;SDS011;63141;54.616;39.754;2023-04-03T20:54:01;8.30;;;2.90;;
74636;SDS011;63141;54.616;39.754;2023-04-03T20:57:02;8.68;;;3.13;;
74636;SDS011;63141;54.616;39.754;2023-04-03T21:00:10;11.30;;;2.90;;
74636;SDS011;63141;54.616;39.754;2023-04-03T21:03:20;5.65;;;2.47;;
74636;SDS011;63141;54.616;39.754;2023-04-03T21:21:40;2.85;;;2.35;;
74636;SDS011;63141;54.616;39.754;2023-04-03T21:24:52;4.30;;;2.05;;
74636;SDS011;63141;54.616;39.754;2023-04-03T21:27:57;6.88;;;2.42;;
74636;SDS011;63141;54.616;39.754;2023-04-03T21:30:59;3.65;;;2.47;;
74636;SDS011;63141;54.616;39.754;2023-04-03T21:34:22;6.80;;;2.25;;